UATE

Aktau Airport

Aktau, Kazakhstan
TAF UATE 182305Z 1900/1924 33006G12MPS 9999 SCT015 TX03/1910Z TNM07/1903Z
Issued Valid From Valid To
Jan-18 @ 23:05 UTC
(3 hours ago)
Jan-19 @ 00:00 UTC
(2 hours ago)
Jan-20 @ 00:00 UTC
(in 22 hours)
Jan-19 @ 00:00 to Jan-20 @ 00:00
TAF UATE 182305Z 1900/1924 33006G12MPS 9999 SCT015 TX03/1910Z TNM07/1903Z
Wind Visibility Clouds
330° at 12 knots
 Gusting to 23 knots
10,000+ meters
  • Scattered at 1,500' AGL
TAF UATE 182305Z 1900/1924 33006G12MPS 9999 SCT015 TX03/1910Z TNM07/1903Z
Issued Jan-18 @ 23:05 UTC
(3 hours ago)
Valid From Jan-19 @ 00:00 UTC
(2 hours ago)
Valid To Jan-20 @ 00:00 UTC
(in 22 hours)
Jan-19 @ 00:00 - Jan-20 @ 00:00
Wind Visibility
330° at 12 knots
 Gusting to 23 knots
10,000+ meters
Clouds
  • Scattered at 1,500' AGL